createdAt,value
2022-09-19T00:01:26.735Z,58.58
2022-09-19T00:04:03.344Z,58.88
2022-09-19T00:06:31.814Z,58.05
2022-09-19T00:08:59.579Z,58.07
2022-09-19T00:11:29.074Z,59.25
2022-09-19T00:13:57.556Z,59.67
2022-09-19T00:16:27.811Z,60.07
2022-09-19T00:18:56.543Z,59.90
2022-09-19T00:21:25.361Z,59.99
2022-09-19T00:24:11.458Z,59.94
2022-09-19T00:26:40.200Z,59.88
2022-09-19T00:29:08.285Z,59.90
2022-09-19T00:31:36.205Z,59.53
2022-09-19T00:34:08.070Z,59.45
2022-09-19T00:36:36.070Z,60.80
2022-09-19T00:39:04.054Z,60.52
2022-09-19T00:41:31.377Z,61.16
2022-09-19T00:44:04.001Z,61.44
2022-09-19T00:46:33.008Z,61.16
2022-09-19T00:49:06.424Z,59.82
2022-09-19T00:51:39.660Z,59.74
2022-09-19T00:54:13.769Z,58.80
2022-09-19T00:56:46.950Z,58.48
2022-09-19T00:59:15.100Z,58.07
2022-09-19T01:01:43.212Z,58.27
2022-09-19T01:04:18.401Z,58.27
2022-09-19T01:06:49.430Z,57.66
2022-09-19T01:09:37.577Z,58.90
2022-09-19T01:12:16.893Z,59.72
2022-09-19T01:14:58.612Z,60.17
2022-09-19T01:17:29.607Z,60.20
2022-09-19T01:19:56.835Z,60.29
2022-09-19T01:22:34.317Z,60.70
2022-09-19T01:25:17.768Z,60.33
2022-09-19T01:28:20.047Z,61.17
2022-09-19T01:31:16.415Z,61.07
2022-09-19T01:33:47.996Z,61.56
2022-09-19T01:36:16.675Z,60.83
2022-09-19T01:38:46.553Z,60.62
2022-09-19T01:41:14.230Z,60.31
2022-09-19T01:43:42.187Z,59.62
2022-09-19T01:49:26.400Z,60.94
2022-09-19T01:52:01.696Z,60.45
2022-09-19T01:54:39.288Z,61.65
2022-09-19T01:57:38.706Z,61.50
2022-09-19T02:00:13.119Z,61.17
2022-09-19T02:03:15.487Z,59.91
2022-09-19T02:05:52.228Z,58.57
2022-09-19T02:08:22.894Z,59.78
2022-09-19T02:11:10.996Z,59.42
2022-09-19T02:13:44.937Z,60.08
2022-09-19T02:16:16.460Z,59.97
2022-09-19T02:18:47.136Z,60.06
2022-09-19T02:21:19.820Z,61.13
2022-09-19T02:23:50.799Z,61.55
2022-09-19T02:26:20.646Z,61.11
2022-09-19T02:28:55.396Z,61.39
2022-09-19T02:31:28.201Z,61.59
2022-09-19T02:33:59.503Z,61.25
2022-09-19T02:36:33.931Z,61.79
2022-09-19T02:39:16.691Z,62.17
2022-09-19T02:42:02.009Z,63.06
2022-09-19T02:44:34.818Z,63.84
2022-09-19T02:47:14.458Z,62.67
2022-09-19T02:49:50.809Z,63.62
2022-09-19T02:52:28.328Z,64.46
2022-09-19T02:55:00.343Z,64.92
2022-09-19T02:57:28.492Z,64.24
2022-09-19T02:59:59.852Z,64.61
2022-09-19T03:02:30.512Z,66.20
2022-09-19T03:05:03.990Z,65.61
2022-09-19T03:07:35.281Z,65.37
2022-09-19T03:10:21.331Z,65.49
2022-09-19T03:12:59.150Z,65.34
2022-09-19T03:15:37.289Z,65.23
2022-09-19T03:18:06.860Z,65.71
2022-09-19T03:20:40.793Z,65.33
2022-09-19T03:23:11.155Z,65.06
2022-09-19T03:25:39.899Z,65.50
2022-09-19T03:28:07.887Z,65.12
2022-09-19T03:30:35.943Z,65.23
2022-09-19T03:33:03.175Z,65.27
2022-09-19T03:35:30.440Z,64.09
2022-09-19T03:37:57.695Z,64.52
2022-09-19T03:40:26.480Z,63.46
2022-09-19T03:42:55.239Z,63.42
2022-09-19T03:45:24.604Z,64.55
2022-09-19T03:47:51.880Z,65.07
2022-09-19T03:50:19.130Z,65.63
2022-09-19T03:53:00.969Z,65.83
2022-09-19T03:55:28.275Z,65.22
2022-09-19T03:57:55.791Z,65.13
2022-09-19T04:00:23.576Z,64.86
2022-09-19T04:02:50.785Z,64.56
2022-09-19T04:05:18.009Z,64.36
2022-09-19T04:07:45.249Z,64.56
2022-09-19T04:10:12.452Z,64.46
2022-09-19T04:12:41.908Z,65.23
2022-09-19T04:15:12.092Z,65.96
2022-09-19T04:17:42.986Z,65.82
2022-09-19T04:20:15.255Z,65.24
2022-09-19T04:22:58.659Z,64.97
2022-09-19T04:25:58.831Z,64.69
2022-09-19T04:28:47.633Z,65.00
2022-09-19T04:31:14.953Z,64.92
2022-09-19T04:33:47.232Z,65.00
2022-09-19T04:36:15.124Z,64.71
2022-09-19T04:38:43.866Z,64.42
2022-09-19T04:41:22.070Z,64.74
2022-09-19T04:43:51.992Z,66.10
2022-09-19T04:46:33.498Z,65.29
2022-09-19T04:49:07.490Z,66.60
2022-09-19T04:51:38.364Z,65.54
2022-09-19T04:54:07.132Z,65.09
2022-09-19T04:56:34.836Z,64.16
2022-09-19T04:59:04.707Z,64.15
2022-09-19T05:04:16.216Z,64.20
2022-09-19T05:06:43.388Z,63.92
2022-09-19T05:09:12.866Z,64.19
2022-09-19T05:11:50.979Z,64.39
2022-09-19T05:14:19.774Z,64.18
2022-09-19T05:16:55.337Z,63.81
2022-09-19T05:19:24.073Z,64.27
2022-09-19T05:21:54.039Z,64.56
2022-09-19T05:24:21.400Z,64.91
2022-09-19T05:26:48.654Z,64.91
2022-09-19T05:29:18.258Z,64.36
2022-09-19T05:32:14.489Z,64.77
2022-09-19T05:34:42.060Z,65.59
2022-09-19T05:37:32.558Z,65.45
2022-09-19T05:40:20.232Z,64.19
2022-09-19T05:43:04.326Z,64.38
2022-09-19T05:45:35.011Z,63.98
2022-09-19T05:48:02.831Z,63.63
2022-09-19T05:50:30.664Z,65.08
2022-09-19T05:53:16.567Z,64.65
2022-09-19T05:55:44.604Z,65.63
2022-09-19T05:58:38.780Z,65.75
2022-09-19T06:01:07.277Z,65.32
2022-09-19T06:03:35.251Z,65.46
2022-09-19T06:06:12.968Z,65.22
2022-09-19T06:08:42.048Z,64.55
2022-09-19T06:11:10.582Z,63.30
2022-09-19T06:13:56.538Z,62.47
2022-09-19T06:16:23.985Z,62.34
2022-09-19T06:19:16.583Z,62.43
2022-09-19T06:21:45.315Z,63.86
2022-09-19T06:24:12.912Z,64.95
2022-09-19T06:26:40.104Z,64.30
2022-09-19T06:29:10.236Z,64.76
2022-09-19T06:31:40.130Z,65.41
2022-09-19T06:34:18.486Z,64.97
2022-09-19T06:36:46.738Z,64.08
2022-09-19T06:39:13.874Z,63.15
2022-09-19T06:41:48.219Z,63.32
2022-09-19T06:44:42.952Z,63.03
2022-09-19T06:47:28.731Z,61.11
2022-09-19T06:50:17.348Z,61.32
2022-09-19T06:52:57.012Z,59.92
2022-09-19T06:55:26.532Z,59.33
2022-09-19T06:57:59.271Z,59.31
2022-09-19T07:00:27.363Z,58.47
2022-09-19T07:03:00.016Z,56.57
2022-09-19T07:05:28.534Z,52.21
2022-09-19T07:08:13.744Z,52.80
2022-09-19T07:10:43.573Z,53.40
2022-09-19T07:13:14.591Z,54.42
2022-09-19T07:15:42.463Z,55.77
2022-09-19T07:18:11.482Z,55.54
2022-09-19T07:20:40.454Z,56.97
2022-09-19T07:23:18.825Z,57.70
2022-09-19T07:25:59.578Z,58.07
2022-09-19T07:28:28.047Z,58.14
2022-09-19T07:30:57.900Z,57.96
2022-09-19T07:33:25.960Z,57.89
2022-09-19T07:35:56.708Z,57.52
2022-09-19T07:38:25.361Z,56.50
2022-09-19T07:41:11.242Z,55.34
2022-09-19T07:44:05.677Z,54.77
2022-09-19T07:49:55.418Z,57.08
2022-09-19T07:52:39.590Z,57.20
2022-09-19T07:55:13.484Z,57.86
2022-09-19T07:57:54.998Z,57.65
2022-09-19T08:00:29.132Z,56.57
2022-09-19T08:03:00.622Z,56.40
2022-09-19T08:05:32.827Z,56.23
2022-09-19T08:08:01.306Z,53.98
2022-09-19T08:10:31.282Z,54.25
2022-09-19T08:13:03.589Z,54.14
2022-09-19T08:15:31.738Z,54.32
2022-09-19T08:18:00.230Z,53.35
2022-09-19T08:20:28.844Z,53.90
2022-09-19T08:22:57.476Z,53.14
2022-09-19T08:25:25.830Z,51.98
2022-09-19T08:27:54.545Z,52.35
2022-09-19T08:30:23.264Z,51.23
2022-09-19T08:32:52.444Z,50.73
2022-09-19T08:35:20.826Z,50.78
2022-09-19T08:37:53.709Z,50.72
2022-09-19T08:40:26.599Z,50.21
2022-09-19T08:42:54.072Z,49.39
2022-09-19T08:45:26.554Z,49.00
2022-09-19T08:47:56.026Z,49.68
2022-09-19T08:50:28.665Z,48.69
2022-09-19T08:53:01.708Z,47.88
2022-09-19T08:55:34.365Z,46.62
2022-09-19T08:58:14.257Z,45.23
2022-09-19T09:01:16.729Z,42.22
2022-09-19T09:04:08.749Z,40.26
2022-09-19T09:06:42.679Z,39.69
2022-09-19T09:09:28.649Z,41.20
2022-09-19T09:11:56.210Z,43.57
2022-09-19T09:14:36.664Z,44.09
2022-09-19T09:17:07.286Z,44.33
2022-09-19T09:19:47.215Z,44.30
2022-09-19T09:22:28.517Z,44.99
2022-09-19T09:25:16.828Z,46.11
2022-09-19T09:28:00.461Z,46.02
2022-09-19T09:30:46.027Z,44.42
2022-09-19T09:33:22.504Z,44.83
2022-09-19T09:35:55.750Z,46.43
2022-09-19T09:38:34.475Z,47.32
2022-09-19T09:41:35.938Z,47.08
2022-09-19T09:44:14.387Z,47.24
2022-09-19T09:46:55.975Z,47.13
2022-09-19T09:49:30.898Z,46.67
2022-09-19T09:52:15.633Z,46.90
2022-09-19T09:55:20.891Z,46.85
2022-09-19T09:57:54.709Z,46.55
2022-09-19T10:00:42.419Z,47.05
2022-09-19T10:03:36.695Z,46.89
2022-09-19T10:06:39.581Z,46.97
2022-09-19T10:09:15.625Z,46.89
2022-09-19T10:15:09.841Z,46.71
2022-09-19T10:17:43.953Z,46.57
2022-09-19T10:20:20.108Z,46.07
2022-09-19T10:22:48.326Z,46.63
2022-09-19T10:25:17.529Z,46.49
2022-09-19T10:27:46.576Z,45.69
2022-09-19T10:30:37.703Z,46.33
2022-09-19T10:33:42.991Z,46.73
2022-09-19T10:36:20.682Z,45.65
2022-09-19T10:38:56.055Z,45.04
2022-09-19T10:41:27.106Z,44.78
2022-09-19T10:43:58.272Z,45.65
2022-09-19T10:46:36.738Z,46.37
2022-09-19T10:49:36.114Z,45.05
2022-09-19T10:52:03.846Z,43.72
2022-09-19T10:54:41.095Z,44.02
2022-09-19T10:57:27.894Z,44.39
2022-09-19T10:59:59.116Z,43.58
2022-09-19T11:02:31.789Z,43.29
2022-09-19T11:05:08.747Z,43.45
2022-09-19T11:07:48.428Z,42.45
2022-09-19T11:10:39.188Z,43.11
2022-09-19T11:13:23.507Z,43.56
2022-09-19T11:15:54.352Z,43.18
2022-09-19T11:18:40.402Z,42.14
2022-09-19T11:21:27.204Z,40.57
2022-09-19T11:24:06.825Z,40.43
2022-09-19T11:26:37.204Z,40.34
2022-09-19T11:29:19.454Z,40.93
2022-09-19T11:35:00.563Z,40.88
2022-09-19T11:37:45.970Z,39.20
2022-09-19T11:40:28.472Z,39.99
2022-09-19T11:42:56.049Z,39.94
2022-09-19T11:45:29.894Z,39.46
2022-09-19T11:48:11.040Z,40.56
2022-09-19T11:50:58.019Z,40.29
2022-09-19T11:53:49.288Z,39.26
2022-09-19T11:56:28.918Z,38.98
2022-09-19T11:59:06.013Z,39.73
2022-09-19T12:01:43.455Z,38.87
2022-09-19T12:04:27.553Z,39.87
2022-09-19T12:07:26.427Z,36.74
2022-09-19T12:09:56.922Z,34.82
2022-09-19T12:12:32.569Z,35.76
2022-09-19T12:15:25.153Z,36.38
2022-09-19T12:18:03.617Z,35.44
2022-09-19T12:20:43.706Z,35.51
2022-09-19T12:23:59.236Z,34.10
2022-09-19T12:26:35.916Z,34.25
2022-09-19T12:29:20.168Z,34.11
2022-09-19T12:31:52.919Z,34.44
2022-09-19T12:34:40.286Z,34.76
2022-09-19T12:37:14.569Z,34.36
2022-09-19T12:39:46.648Z,33.67
2022-09-19T12:42:19.471Z,34.38
2022-09-19T12:45:04.980Z,34.28
2022-09-19T12:47:44.349Z,35.06
2022-09-19T12:50:23.897Z,36.02
2022-09-19T12:53:14.475Z,35.53
2022-09-19T12:55:59.856Z,35.68
2022-09-19T12:58:37.345Z,34.71
2022-09-19T13:01:16.766Z,34.23
2022-09-19T13:03:47.000Z,34.92
2022-09-19T13:06:19.610Z,34.80
2022-09-19T13:08:51.681Z,34.10
2022-09-19T13:11:25.925Z,33.78
2022-09-19T13:13:57.879Z,32.42
2022-09-19T13:16:30.908Z,33.06
2022-09-19T13:19:17.220Z,33.80
2022-09-19T13:21:58.017Z,35.01
2022-09-19T13:24:37.081Z,34.77
2022-09-19T13:27:06.164Z,30.74
2022-09-19T13:29:34.624Z,31.06
2022-09-19T13:32:09.046Z,30.83
2022-09-19T13:34:42.615Z,32.17
2022-09-19T13:37:28.117Z,33.23
2022-09-19T13:39:58.296Z,32.36
2022-09-19T13:42:29.568Z,30.38
2022-09-19T13:45:02.778Z,31.84
2022-09-19T13:50:41.301Z,27.59
2022-09-19T13:53:22.848Z,27.71
2022-09-19T13:55:59.936Z,27.51
2022-09-19T13:58:29.939Z,27.19
2022-09-19T14:01:08.345Z,26.71
2022-09-19T14:03:37.699Z,28.16
2022-09-19T14:06:25.495Z,29.48
2022-09-19T14:11:59.995Z,29.27
2022-09-19T14:14:39.703Z,29.60
2022-09-19T14:17:19.054Z,30.66
2022-09-19T14:19:47.289Z,31.03
2022-09-19T14:22:38.561Z,30.23
2022-09-19T14:25:08.669Z,31.69
2022-09-19T14:27:35.793Z,32.17
2022-09-19T14:30:05.713Z,31.24
2022-09-19T14:32:41.425Z,31.91
2022-09-19T14:35:21.740Z,32.27
2022-09-19T14:38:07.689Z,31.87
2022-09-19T14:40:37.193Z,32.58
2022-09-19T14:43:23.073Z,32.89
2022-09-19T14:45:53.469Z,30.12
2022-09-19T14:48:35.241Z,29.43
2022-09-19T14:51:05.767Z,29.33
2022-09-19T14:53:34.241Z,29.22
2022-09-19T14:56:02.875Z,28.14
2022-09-19T14:58:32.140Z,28.74
2022-09-19T15:01:02.145Z,29.90
2022-09-19T15:03:29.537Z,29.24
2022-09-19T15:05:56.854Z,28.83
2022-09-19T15:08:28.620Z,29.49
2022-09-19T15:11:02.811Z,28.47
2022-09-19T15:13:31.996Z,30.09
2022-09-19T15:16:01.938Z,31.70
2022-09-19T15:18:35.774Z,31.71
2022-09-19T15:21:05.144Z,31.99
2022-09-19T15:23:33.765Z,31.65
2022-09-19T15:26:02.613Z,31.82
2022-09-19T15:28:38.588Z,32.03
2022-09-19T15:31:22.953Z,32.36
2022-09-19T15:34:07.323Z,32.69
2022-09-19T15:36:36.531Z,32.15
2022-09-19T15:39:05.674Z,32.38
2022-09-19T15:41:34.596Z,32.32
2022-09-19T15:44:02.639Z,31.82
2022-09-19T15:46:29.957Z,31.39
2022-09-19T15:48:58.827Z,32.24
2022-09-19T15:51:34.101Z,31.95
2022-09-19T15:54:02.222Z,31.94
2022-09-19T15:56:41.625Z,31.83
2022-09-19T15:59:14.294Z,31.99
2022-09-19T16:01:47.091Z,31.34
2022-09-19T16:04:18.405Z,31.61
2022-09-19T16:07:10.610Z,31.95
2022-09-19T16:09:42.552Z,31.71
2022-09-19T16:12:34.169Z,31.28
2022-09-19T16:15:02.731Z,32.75
2022-09-19T16:18:07.141Z,33.10
2022-09-19T16:20:34.370Z,32.72
2022-09-19T16:23:01.573Z,32.50
2022-09-19T16:25:38.037Z,32.11
2022-09-19T16:28:15.960Z,32.78
2022-09-19T16:31:04.527Z,33.44
2022-09-19T16:33:40.558Z,33.89
2022-09-19T16:36:15.428Z,33.96
2022-09-19T16:39:01.175Z,33.94
2022-09-19T16:41:35.622Z,34.40
2022-09-19T16:44:22.783Z,34.70
2022-09-19T16:46:50.457Z,34.76
2022-09-19T16:49:18.151Z,35.47
2022-09-19T16:51:50.572Z,35.15
2022-09-19T16:54:19.179Z,34.78
2022-09-19T16:56:47.279Z,34.76
2022-09-19T16:59:15.570Z,34.59
2022-09-19T17:01:45.977Z,34.65
2022-09-19T17:04:18.858Z,34.75
2022-09-19T17:06:46.726Z,35.00
2022-09-19T17:09:15.947Z,34.74
2022-09-19T17:11:43.494Z,34.86
2022-09-19T17:14:20.990Z,35.05
2022-09-19T17:16:48.669Z,35.05
2022-09-19T17:19:16.018Z,35.10
2022-09-19T17:21:43.549Z,35.10
2022-09-19T17:24:12.268Z,35.16
2022-09-19T17:26:39.852Z,34.66
2022-09-19T17:29:08.253Z,34.64
2022-09-19T17:31:36.209Z,35.04
2022-09-19T17:34:07.606Z,35.31
2022-09-19T17:36:35.230Z,35.67
2022-09-19T17:39:04.147Z,35.98
2022-09-19T17:41:32.668Z,36.21
2022-09-19T17:44:00.031Z,36.05
2022-09-19T17:46:27.308Z,36.27
2022-09-19T17:48:54.642Z,36.42
2022-09-19T17:51:23.844Z,36.09
2022-09-19T17:53:51.428Z,35.91
2022-09-19T17:56:24.007Z,36.51
2022-09-19T17:58:55.326Z,37.30
2022-09-19T18:01:41.739Z,37.33
2022-09-19T18:04:09.639Z,38.04
2022-09-19T18:06:37.386Z,38.17
2022-09-19T18:09:06.361Z,38.54
2022-09-19T18:11:34.380Z,38.40
2022-09-19T18:14:03.428Z,38.39
2022-09-19T18:16:38.798Z,38.43
2022-09-19T18:19:09.682Z,38.94
2022-09-19T18:21:40.814Z,38.88
2022-09-19T18:24:08.975Z,39.00
2022-09-19T18:26:36.363Z,39.28
2022-09-19T18:29:04.905Z,39.57
2022-09-19T18:31:32.625Z,39.43
2022-09-19T18:34:00.443Z,39.95
2022-09-19T18:36:28.399Z,40.08
2022-09-19T18:38:57.056Z,40.44
2022-09-19T18:41:25.696Z,40.95
2022-09-19T18:43:53.694Z,41.13
2022-09-19T18:46:22.515Z,41.64
2022-09-19T18:48:51.037Z,42.02
2022-09-19T18:51:19.508Z,42.48
2022-09-19T18:53:48.337Z,42.95
2022-09-19T18:56:16.184Z,43.36
2022-09-19T18:58:43.432Z,43.65
2022-09-19T19:01:14.153Z,44.04
2022-09-19T19:03:44.488Z,44.59
2022-09-19T19:06:20.857Z,45.27
2022-09-19T19:08:50.180Z,45.65
2022-09-19T19:11:22.552Z,45.99
2022-09-19T19:13:49.904Z,46.81
2022-09-19T19:16:18.377Z,47.16
2022-09-19T19:18:51.029Z,47.56
2022-09-19T19:21:21.140Z,47.68
2022-09-19T19:23:48.699Z,47.92
2022-09-19T19:26:16.220Z,47.98
2022-09-19T19:28:43.485Z,48.57
2022-09-19T19:31:10.757Z,48.39
2022-09-19T19:33:38.009Z,48.74
2022-09-19T19:36:05.309Z,48.81
2022-09-19T19:38:33.507Z,47.97
2022-09-19T19:41:02.367Z,46.99
2022-09-19T19:43:30.413Z,47.18
2022-09-19T19:46:03.262Z,47.25
2022-09-19T19:48:58.007Z,47.06
2022-09-19T19:51:26.275Z,46.63
2022-09-19T19:53:55.336Z,45.85
2022-09-19T19:56:23.265Z,45.63
2022-09-19T19:58:51.459Z,45.63
2022-09-19T20:01:20.286Z,45.09
2022-09-19T20:03:51.923Z,44.97
2022-09-19T20:06:19.930Z,45.00
2022-09-19T20:08:47.090Z,45.05
2022-09-19T20:11:14.945Z,45.91
2022-09-19T20:13:42.557Z,45.56
2022-09-19T20:16:11.472Z,45.44
2022-09-19T20:18:43.498Z,45.68
2022-09-19T20:21:14.096Z,45.92
2022-09-19T20:23:41.921Z,45.27
2022-09-19T20:26:11.948Z,45.07
2022-09-19T20:28:39.119Z,43.60
2022-09-19T20:31:07.551Z,43.71
2022-09-19T20:33:34.739Z,44.28
2022-09-19T20:36:04.777Z,44.51
2022-09-19T20:38:32.424Z,43.11
2022-09-19T20:41:00.452Z,42.36
2022-09-19T20:43:46.260Z,41.56
2022-09-19T20:46:14.606Z,40.89
2022-09-19T20:49:10.806Z,40.82
2022-09-19T20:51:39.057Z,40.02
2022-09-19T20:54:16.245Z,39.91
2022-09-19T20:56:45.498Z,39.93
2022-09-19T20:59:15.705Z,39.44
2022-09-19T21:01:47.485Z,39.33
2022-09-19T21:04:17.626Z,39.30
2022-09-19T21:06:44.830Z,39.28
2022-09-19T21:09:13.444Z,39.32
2022-09-19T21:11:41.026Z,39.62
2022-09-19T21:14:08.314Z,39.95
2022-09-19T21:16:35.612Z,40.26
2022-09-19T21:19:02.916Z,40.31
2022-09-19T21:21:31.151Z,40.63
2022-09-19T21:23:58.701Z,40.28
2022-09-19T21:26:26.240Z,40.08
2022-09-19T21:28:54.508Z,40.56
2022-09-19T21:31:22.719Z,39.50
2022-09-19T21:33:57.252Z,39.84
2022-09-19T21:36:25.375Z,40.29
2022-09-19T21:38:54.135Z,40.58
2022-09-19T21:41:21.574Z,40.28
2022-09-19T21:43:52.371Z,40.40
2022-09-19T21:46:20.062Z,41.11
2022-09-19T21:49:13.829Z,41.62
2022-09-19T21:51:41.052Z,41.10
2022-09-19T21:54:08.662Z,41.16
2022-09-19T21:56:36.307Z,41.33
2022-09-19T21:59:04.373Z,42.13
2022-09-19T22:01:32.992Z,42.39
2022-09-19T22:04:00.352Z,42.41
2022-09-19T22:06:28.632Z,42.54
2022-09-19T22:08:57.264Z,43.41
2022-09-19T22:11:29.437Z,43.77
2022-09-19T22:13:59.705Z,43.95
2022-09-19T22:16:28.269Z,44.60
2022-09-19T22:18:55.876Z,44.31
2022-09-19T22:21:24.053Z,43.86
2022-09-19T22:23:52.832Z,43.72
2022-09-19T22:26:21.395Z,43.15
2022-09-19T22:28:48.642Z,43.58
2022-09-19T22:31:16.870Z,43.22
2022-09-19T22:33:45.145Z,42.54
2022-09-19T22:36:13.593Z,43.04
2022-09-19T22:38:40.850Z,43.34
2022-09-19T22:41:10.441Z,43.23
2022-09-19T22:43:37.806Z,43.44
2022-09-19T22:46:05.730Z,44.17
2022-09-19T22:48:32.960Z,44.57
2022-09-19T22:51:00.485Z,45.59
2022-09-19T22:53:27.970Z,45.55
2022-09-19T22:55:57.156Z,46.13
2022-09-19T22:58:28.414Z,45.95
2022-09-19T23:00:55.897Z,46.54
2022-09-19T23:03:23.153Z,46.61
2022-09-19T23:05:59.902Z,47.25
2022-09-19T23:08:27.112Z,47.59
2022-09-19T23:10:58.284Z,47.75
2022-09-19T23:13:44.088Z,47.71
2022-09-19T23:16:11.718Z,47.64
2022-09-19T23:18:40.260Z,48.08
2022-09-19T23:21:07.684Z,47.43
2022-09-19T23:23:35.308Z,47.42
2022-09-19T23:26:03.968Z,46.91
2022-09-19T23:28:31.404Z,46.20
2022-09-19T23:31:05.575Z,46.91
2022-09-19T23:33:33.742Z,46.17
2022-09-19T23:36:02.105Z,45.95
2022-09-19T23:38:29.789Z,45.55
2022-09-19T23:41:01.077Z,45.52
2022-09-19T23:43:29.428Z,45.83
2022-09-19T23:45:57.396Z,46.29
2022-09-19T23:48:25.406Z,46.05
2022-09-19T23:50:53.159Z,44.97
2022-09-19T23:53:20.724Z,45.15
2022-09-19T23:55:48.586Z,43.87
2022-09-19T23:58:16.597Z,44.14
